Terminal Aerodrome Forecast
Issued by NWS

Home | Current Version | Previous Version | Text Only | Print | Product List | Glossary On
Versions: 1 2 3 4 5 6 7 8 9 10 11 12 13 14 15 16 17 18
000
FTUS41 KPHI 301722
TAFPNE
TAF
KPNE 301722Z 3018/3118 24005KT P6SM SCT025 BKN200
      TEMPO 3019/3021 BKN025
     FM302100 24005KT P6SM SCT030 BKN200
      TEMPO 3021/3024 -SHRA BKN030
     FM310100 24003KT 5SM BR SCT100
     FM310400 VRB02KT 2SM BR VV008
     FM311300 35005KT P6SM FEW040=

USA.gov is the U.S. government's official web portal to all federal, state and local government web resources and services.